Time;durP1;ratioP1;P1;durP2;ratioP2;P2;SDS_P1;SDS_P2;PMS_P1;PMS_P2;Temp;Humidity;BMP_temperature;BMP_pressure;BME280_temperature;BME280_humidity;BME280_pressure;Samples;Min_cycle;Max_cycle;Signal;HPM_P1;HPM_P2
2020/12/25 00:01:56;;;;;;;8.27;6.33;;;5.70;99.90;;;;;;5012464;28;20196;-74
2020/12/25 00:04:22;;;;;;;9.10;5.97;;;5.70;99.90;;;;;;5013053;28;20187;-74
2020/12/25 00:06:48;;;;;;;6.57;5.07;;;5.70;99.90;;;;;;5012922;28;20191;-74
2020/12/25 00:09:13;;;;;;;7.77;6.30;;;5.70;99.90;;;;;;5027992;28;20206;-74
2020/12/25 00:11:39;;;;;;;10.60;7.03;;;5.80;99.90;;;;;;5012607;28;20528;-74
2020/12/25 00:14:05;;;;;;;5.80;5.27;;;5.70;99.90;;;;;;5013081;28;20251;-74
2020/12/25 00:16:31;;;;;;;8.57;6.70;;;5.70;99.90;;;;;;5012757;28;20172;-74
2020/12/25 00:18:57;;;;;;;7.77;6.03;;;5.80;99.90;;;;;;5012681;28;20920;-74
2020/12/25 00:21:23;;;;;;;9.10;6.20;;;5.80;99.90;;;;;;5012372;28;20449;-74
2020/12/25 00:23:49;;;;;;;7.23;5.63;;;5.80;99.90;;;;;;5011277;28;20435;-74
2020/12/25 00:26:22;;;;;;;8.60;5.30;;;5.80;99.90;;;;;;5027521;28;20941;-74
2020/12/25 00:28:47;;;;;;;10.27;5.30;;;5.80;99.90;;;;;;5012694;28;20177;-74
2020/12/25 00:31:30;;;;;;;11.27;6.57;;;5.70;99.90;;;;;;5012358;28;20517;-74
2020/12/25 00:34:04;;;;;;;10.50;5.70;;;5.70;99.90;;;;;;5011098;28;20667;-74
2020/12/25 00:36:35;;;;;;;8.23;5.73;;;5.70;99.90;;;;;;5012400;28;20485;-74
2020/12/25 00:39:04;;;;;;;9.57;6.07;;;5.70;99.90;;;;;;5012573;28;20458;-74
2020/12/25 00:41:29;;;;;;;11.13;5.27;;;5.70;99.90;;;;;;5026748;28;20477;-74
2020/12/25 00:43:55;;;;;;;9.00;6.57;;;5.70;99.90;;;;;;5012505;28;20431;-74
2020/12/25 00:46:21;;;;;;;10.00;6.33;;;5.80;99.90;;;;;;5012311;28;20546;-74
2020/12/25 00:48:47;;;;;;;7.20;5.80;;;5.70;99.90;;;;;;5011841;28;20570;-74
2020/12/25 00:51:19;;;;;;;10.50;6.40;;;5.70;99.90;;;;;;5012130;28;20985;-74
2020/12/25 00:53:46;;;;;;;8.90;6.40;;;5.70;99.90;;;;;;4998289;28;20423;-74
2020/12/25 00:56:13;;;;;;;9.20;6.60;;;5.70;99.90;;;;;;5043651;28;20423;-74
2020/12/25 00:58:39;;;;;;;14.23;6.13;;;5.80;99.90;;;;;;5010010;28;20470;-74
2020/12/25 01:01:09;;;;;;;8.83;5.70;;;5.80;99.90;;;;;;5006080;28;20443;-74
2020/12/25 01:03:36;;;;;;;9.30;6.33;;;5.80;99.90;;;;;;5012121;28;20423;-74
2020/12/25 01:06:08;;;;;;;10.47;6.87;;;5.80;99.90;;;;;;5010929;28;20427;-74
2020/12/25 01:08:33;;;;;;;8.00;6.53;;;5.80;99.90;;;;;;5011186;28;20419;-74
2020/12/25 01:10:59;;;;;;;9.77;6.83;;;5.70;99.90;;;;;;5027067;28;20608;-74
2020/12/25 01:13:24;;;;;;;7.47;6.20;;;5.70;99.90;;;;;;5012198;28;20187;-74
2020/12/25 01:15:50;;;;;;;9.43;6.10;;;5.70;99.90;;;;;;5012246;28;20199;-75
2020/12/25 01:18:15;;;;;;;13.53;9.13;;;5.60;99.90;;;;;;5012220;28;20175;-74
2020/12/25 01:20:41;;;;;;;9.80;6.90;;;5.60;99.90;;;;;;5009758;28;20636;-74
2020/12/25 01:23:07;;;;;;;8.00;6.73;;;5.60;99.90;;;;;;5012332;28;20183;-74
2020/12/25 01:25:32;;;;;;;10.63;7.00;;;5.60;99.90;;;;;;5027531;28;20211;-74
2020/12/25 01:27:58;;;;;;;11.13;7.60;;;5.50;99.90;;;;;;5011716;28;20180;-74
2020/12/25 01:30:23;;;;;;;11.50;7.33;;;5.50;99.90;;;;;;5012019;28;20196;-75
2020/12/25 01:32:49;;;;;;;10.63;7.13;;;5.50;99.90;;;;;;5012032;28;20200;-74
2020/12/25 01:35:15;;;;;;;10.43;7.00;;;5.50;99.90;;;;;;5011754;28;20618;-74
2020/12/25 01:37:40;;;;;;;10.33;7.43;;;5.50;99.90;;;;;;5012026;28;20731;-75
2020/12/25 01:40:06;;;;;;;11.17;8.33;;;5.60;99.90;;;;;;5011901;28;20176;-75
2020/12/25 01:42:33;;;;;;;21.33;10.20;;;5.60;99.90;;;;;;5011468;28;20208;-74
2020/12/25 01:44:59;;;;;;;13.77;8.50;;;5.60;99.90;;;;;;5014054;28;20195;-74
2020/12/25 01:47:24;;;;;;;18.67;9.00;;;5.50;99.90;;;;;;5015362;28;20435;-74
2020/12/25 01:49:50;;;;;;;18.60;8.67;;;5.40;99.90;;;;;;5013901;28;20242;-74
2020/12/25 01:52:16;;;;;;;13.10;8.50;;;5.40;99.90;;;;;;5047350;28;20199;-74
2020/12/25 01:54:43;;;;;;;16.77;8.87;;;5.40;99.90;;;;;;5015652;28;20180;-74
2020/12/25 01:57:11;;;;;;;13.50;7.30;;;5.40;99.90;;;;;;5030511;28;20179;-75
2020/12/25 01:59:37;;;;;;;14.97;8.70;;;5.40;99.90;;;;;;5015437;28;20431;-74
2020/12/25 02:02:03;;;;;;;10.90;6.77;;;5.40;99.90;;;;;;5015316;28;20526;-74
2020/12/25 02:04:28;;;;;;;8.83;5.90;;;5.40;99.90;;;;;;5015386;28;20268;-75
2020/12/25 02:06:54;;;;;;;8.47;6.43;;;5.30;99.90;;;;;;5015176;28;20175;-74
2020/12/25 02:09:20;;;;;;;9.80;6.73;;;5.20;99.90;;;;;;5030361;28;20184;-75
2020/12/25 02:11:46;;;;;;;9.23;7.60;;;5.20;99.90;;;;;;5012608;28;20192;-74
2020/12/25 02:14:11;;;;;;;12.40;8.00;;;5.30;99.90;;;;;;5014881;28;20579;-75
2020/12/25 02:16:37;;;;;;;15.03;6.50;;;5.30;99.90;;;;;;5030229;28;20207;-74
2020/12/25 02:19:03;;;;;;;11.20;7.40;;;5.30;99.90;;;;;;5015187;28;20208;-75
2020/12/25 02:21:28;;;;;;;10.20;7.13;;;5.30;99.90;;;;;;5014340;28;20250;-74
2020/12/25 02:23:54;;;;;;;12.90;9.00;;;5.30;99.90;;;;;;5014685;28;20219;-75
2020/12/25 02:26:20;;;;;;;10.87;7.30;;;5.20;99.90;;;;;;5014548;28;20271;-75
2020/12/25 02:28:45;;;;;;;17.47;8.13;;;5.30;99.90;;;;;;5030286;28;20283;-74
2020/12/25 02:31:11;;;;;;;13.50;6.83;;;5.20;99.90;;;;;;5029700;28;20204;-74
2020/12/25 02:33:36;;;;;;;7.97;4.70;;;5.20;99.90;;;;;;5030023;28;20199;-74
2020/12/25 02:36:02;;;;;;;5.80;4.77;;;5.20;99.90;;;;;;5014912;28;20177;-74
2020/12/25 02:38:28;;;;;;;11.80;5.60;;;5.10;99.90;;;;;;5014448;28;20200;-75
2020/12/25 02:40:53;;;;;;;6.23;5.00;;;5.20;99.90;;;;;;5014524;28;20235;-74
2020/12/25 02:43:19;;;;;;;11.33;6.33;;;5.20;99.90;;;;;;5014641;28;20177;-74
2020/12/25 02:45:45;;;;;;;9.57;5.53;;;5.30;99.90;;;;;;5014566;28;20204;-74
2020/12/25 02:48:10;;;;;;;9.90;6.10;;;5.30;99.90;;;;;;5014185;28;20198;-75
2020/12/25 02:50:36;;;;;;;11.27;7.20;;;5.40;99.90;;;;;;5012972;28;20727;-75
2020/12/25 02:53:01;;;;;;;12.50;6.00;;;5.40;99.90;;;;;;5013626;28;20208;-74
2020/12/25 02:55:27;;;;;;;7.90;4.50;;;5.40;99.90;;;;;;5012969;28;20262;-75
2020/12/25 02:57:53;;;;;;;5.87;3.93;;;5.40;99.90;;;;;;5014577;28;20173;-73
2020/12/25 03:00:18;;;;;;;7.10;4.80;;;5.40;99.90;;;;;;5014209;28;20184;-74
2020/12/25 03:02:44;;;;;;;6.83;4.00;;;5.40;99.90;;;;;;5045929;28;20604;-73
2020/12/25 03:05:09;;;;;;;10.30;4.80;;;5.30;99.90;;;;;;5013389;28;20172;-74
2020/12/25 03:07:35;;;;;;;9.43;5.30;;;5.30;99.90;;;;;;5012723;28;20234;-73
2020/12/25 03:10:01;;;;;;;9.30;5.27;;;5.30;99.90;;;;;;5013879;28;20210;-73
2020/12/25 03:12:26;;;;;;;9.80;4.67;;;5.30;99.90;;;;;;5013779;28;20458;-74
2020/12/25 03:14:52;;;;;;;7.57;5.10;;;5.20;99.90;;;;;;5014333;28;20202;-74
2020/12/25 03:17:19;;;;;;;8.30;4.80;;;5.20;99.90;;;;;;5014085;28;20238;-73
2020/12/25 03:19:44;;;;;;;12.67;5.73;;;5.20;99.90;;;;;;5013819;28;20180;-73
2020/12/25 03:22:10;;;;;;;4.93;4.30;;;5.10;99.90;;;;;;5013377;28;20533;-73
2020/12/25 03:24:35;;;;;;;7.17;5.33;;;5.00;99.90;;;;;;5012720;28;20180;-73
2020/12/25 03:27:01;;;;;;;7.43;4.80;;;5.10;99.90;;;;;;5013776;28;20176;-73
2020/12/25 03:29:27;;;;;;;15.30;4.90;;;5.00;99.90;;;;;;5013759;28;20187;-73
2020/12/25 03:31:52;;;;;;;9.10;4.63;;;4.90;99.90;;;;;;5013548;28;20224;-73
2020/12/25 03:34:18;;;;;;;8.27;5.20;;;4.90;99.90;;;;;;5013324;28;20187;-73
2020/12/25 03:36:43;;;;;;;10.43;5.90;;;4.90;99.90;;;;;;5013624;28;20177;-73
2020/12/25 03:39:09;;;;;;;7.20;4.17;;;4.90;99.90;;;;;;5013703;28;20173;-73
2020/12/25 03:41:35;;;;;;;6.00;4.70;;;4.90;99.90;;;;;;5004871;28;20301;-73
2020/12/25 03:44:01;;;;;;;9.83;4.80;;;4.90;99.90;;;;;;5013591;28;20434;-73
2020/12/25 03:46:33;;;;;;;12.67;5.30;;;4.80;99.90;;;;;;5013303;28;20449;-73
2020/12/25 03:48:58;;;;;;;14.40;5.47;;;4.80;99.90;;;;;;5012987;28;20198;-73
2020/12/25 03:51:24;;;;;;;8.43;4.30;;;4.90;99.90;;;;;;5012726;28;20462;-73
2020/12/25 03:53:50;;;;;;;10.80;4.90;;;4.90;99.90;;;;;;5013490;28;20207;-73
2020/12/25 03:56:16;;;;;;;10.80;5.50;;;4.90;99.90;;;;;;5012209;28;20172;-73
2020/12/25 03:58:41;;;;;;;8.67;5.97;;;4.90;99.90;;;;;;5013445;28;20168;-73
2020/12/25 04:01:07;;;;;;;9.97;6.83;;;4.90;99.90;;;;;;5013064;28;20848;-73
2020/12/25 04:03:33;;;;;;;8.93;5.17;;;5.00;99.90;;;;;;5012513;28;20192;-73
2020/12/25 04:05:58;;;;;;;12.97;6.60;;;5.00;99.90;;;;;;5012844;28;20183;-73
2020/12/25 04:08:24;;;;;;;7.50;5.20;;;5.00;99.90;;;;;;5013117;28;20279;-73
2020/12/25 04:10:50;;;;;;;17.20;5.73;;;5.00;99.90;;;;;;5011425;28;20203;-73
2020/12/25 04:13:15;;;;;;;9.83;4.90;;;5.00;99.90;;;;;;5012906;28;20586;-73
2020/12/25 04:15:41;;;;;;;6.80;4.60;;;5.10;99.90;;;;;;5013052;28;20263;-73
2020/12/25 04:18:06;;;;;;;8.67;5.07;;;5.10;99.90;;;;;;5012387;28;20226;-73
2020/12/25 04:20:32;;;;;;;14.70;5.30;;;5.10;99.90;;;;;;5027802;28;20275;-73
2020/12/25 04:22:57;;;;;;;9.43;5.03;;;5.00;99.90;;;;;;5028061;28;20211;-73
2020/12/25 04:25:23;;;;;;;7.00;4.50;;;5.00;99.90;;;;;;5012567;28;20684;-73
2020/12/25 04:27:49;;;;;;;10.27;3.97;;;5.00;99.90;;;;;;5012777;28;20211;-74
2020/12/25 04:30:14;;;;;;;6.87;3.43;;;5.00;99.90;;;;;;5012568;28;20677;-74
2020/12/25 04:32:40;;;;;;;10.70;3.40;;;4.90;99.90;;;;;;5012070;28;20741;-74
2020/12/25 04:35:06;;;;;;;8.03;4.40;;;4.90;99.90;;;;;;5012389;28;20168;-73
2020/12/25 04:37:32;;;;;;;6.33;3.37;;;4.90;99.90;;;;;;5012390;28;20203;-73
2020/12/25 04:39:58;;;;;;;12.17;4.33;;;4.80;99.90;;;;;;5012294;28;20423;-73
2020/12/25 04:42:27;;;;;;;11.00;4.30;;;4.70;99.90;;;;;;5012168;28;20522;-75
2020/12/25 04:44:53;;;;;;;6.97;3.40;;;4.60;99.90;;;;;;5012233;28;20646;-73
2020/12/25 04:47:19;;;;;;;4.77;2.73;;;4.60;99.90;;;;;;5010479;28;20435;-73
2020/12/25 04:49:44;;;;;;;8.50;3.53;;;4.60;99.90;;;;;;5012294;28;20199;-73
2020/12/25 04:52:10;;;;;;;9.40;3.03;;;4.60;99.90;;;;;;5013209;28;20192;-74
2020/12/25 04:54:35;;;;;;;10.00;3.70;;;4.50;99.90;;;;;;5017992;28;20176;-74
2020/12/25 04:57:01;;;;;;;8.33;2.57;;;4.50;99.90;;;;;;5018482;28;20228;-73
2020/12/25 04:59:28;;;;;;;14.83;3.23;;;4.40;99.90;;;;;;5021290;28;20180;-74
2020/12/25 05:01:55;;;;;;;6.70;2.50;;;4.40;99.90;;;;;;5019544;28;20279;-73
2020/12/25 05:04:22;;;;;;;14.27;3.40;;;4.40;99.90;;;;;;5019373;28;20525;-73
2020/12/25 05:06:49;;;;;;;5.83;2.80;;;4.40;99.90;;;;;;5033226;28;20996;-73
2020/12/25 05:09:16;;;;;;;9.10;2.80;;;4.30;99.90;;;;;;5015970;28;20466;-73
2020/12/25 05:11:42;;;;;;;6.50;2.47;;;4.30;99.90;;;;;;5017658;28;20469;-74
2020/12/25 05:14:08;;;;;;;15.50;3.37;;;4.30;99.90;;;;;;5033206;28;20435;-73
2020/12/25 05:16:34;;;;;;;8.03;2.27;;;4.30;99.90;;;;;;5013700;28;20202;-73
2020/12/25 05:19:00;;;;;;;7.00;3.07;;;4.20;99.90;;;;;;5016295;28;20447;-73
2020/12/25 05:21:26;;;;;;;6.60;2.70;;;4.20;99.90;;;;;;5018027;28;20192;-73
2020/12/25 05:23:53;;;;;;;10.50;3.20;;;4.10;99.90;;;;;;5018486;28;20800;-73
2020/12/25 05:26:19;;;;;;;11.80;2.90;;;4.10;99.90;;;;;;5013997;28;20434;-73
2020/12/25 05:28:48;;;;;;;4.37;2.37;;;4.10;99.90;;;;;;5011708;28;20427;-73
2020/12/25 05:31:15;;;;;;;7.20;3.30;;;4.00;99.90;;;;;;5017753;28;20484;-73
2020/12/25 05:33:41;;;;;;;10.67;2.67;;;3.90;99.90;;;;;;5023333;28;20501;-74
2020/12/25 05:36:12;;;;;;;5.97;2.30;;;3.90;99.90;;;;;;5021859;28;20824;-74
2020/12/25 05:38:39;;;;;;;7.83;2.80;;;3.90;99.90;;;;;;5024066;28;20426;-73
2020/12/25 05:41:06;;;;;;;7.43;3.23;;;3.80;99.90;;;;;;5021291;28;20446;-73
2020/12/25 05:43:32;;;;;;;13.93;3.90;;;3.80;99.90;;;;;;5018358;28;20438;-73
2020/12/25 05:45:58;;;;;;;8.43;3.60;;;3.80;99.90;;;;;;5017962;28;20939;-73
2020/12/25 05:48:24;;;;;;;14.33;3.33;;;3.70;99.90;;;;;;5018292;28;20495;-73
2020/12/25 05:50:50;;;;;;;11.87;3.30;;;3.70;99.90;;;;;;5017594;28;20262;-73
2020/12/25 05:53:17;;;;;;;3.73;2.40;;;3.70;99.90;;;;;;5017453;28;20186;-73
2020/12/25 05:55:44;;;;;;;5.47;2.70;;;3.70;99.90;;;;;;5018512;28;20461;-73
2020/12/25 05:58:12;;;;;;;12.47;2.53;;;3.70;99.90;;;;;;5016630;28;20420;-74
2020/12/25 06:00:40;;;;;;;10.13;2.30;;;3.70;99.90;;;;;;5020833;28;20518;-73
2020/12/25 06:03:10;;;;;;;5.20;2.53;;;3.70;99.90;;;;;;5026757;28;20509;-74
2020/12/25 06:05:38;;;;;;;5.00;3.10;;;3.70;99.90;;;;;;5027376;28;20989;-74
2020/12/25 06:08:16;;;;;;;5.30;2.37;;;3.70;99.90;;;;;;5028420;28;20422;-73
2020/12/25 06:10:44;;;;;;;8.47;2.70;;;3.60;99.90;;;;;;5046267;28;21027;-74
2020/12/25 06:13:16;;;;;;;12.53;2.67;;;3.60;99.90;;;;;;5017997;28;20422;-74
2020/12/25 06:15:48;;;;;;;5.33;3.43;;;3.60;99.90;;;;;;5007173;28;20467;-73
2020/12/25 06:18:30;;;;;;;12.57;3.13;;;3.60;99.90;;;;;;5023544;28;20430;-74
2020/12/25 06:21:18;;;;;;;20.30;5.20;;;3.60;99.90;;;;;;5025145;28;20458;-74
2020/12/25 06:23:46;;;;;;;9.50;4.37;;;3.60;99.90;;;;;;5059894;28;20456;-74
2020/12/25 06:26:11;;;;;;;7.33;3.37;;;3.60;99.90;;;;;;5026771;28;20455;-74
2020/12/25 06:28:41;;;;;;;6.40;2.83;;;3.60;99.90;;;;;;5020511;28;20938;-73
2020/12/25 06:31:42;;;;;;;20.40;2.83;;;3.60;99.90;;;;;;5014333;28;20278;-73
2020/12/25 06:34:08;;;;;;;6.70;2.90;;;3.60;99.90;;;;;;5016360;28;20453;-74
2020/12/25 06:36:34;;;;;;;13.97;3.80;;;3.60;99.90;;;;;;5025612;28;20442;-73
2020/12/25 06:39:09;;;;;;;18.07;4.00;;;3.60;99.90;;;;;;5025664;28;20781;-74
2020/12/25 06:41:36;;;;;;;7.30;2.57;;;3.60;99.90;;;;;;5023377;28;20447;-73
2020/12/25 06:44:06;;;;;;;11.13;5.50;;;3.60;99.90;;;;;;5017525;28;20458;-74
2020/12/25 06:46:35;;;;;;;9.03;2.97;;;3.70;99.90;;;;;;5023896;28;20431;-74
2020/12/25 06:49:07;;;;;;;7.50;2.70;;;3.70;99.90;;;;;;5057364;28;20515;-74
2020/12/25 06:51:44;;;;;;;16.20;3.10;;;3.70;99.90;;;;;;5022565;28;20537;-73
2020/12/25 06:54:19;;;;;;;6.13;2.80;;;3.70;99.90;;;;;;5014503;28;20480;-73
2020/12/25 06:56:47;;;;;;;6.63;3.50;;;3.80;99.90;;;;;;5014275;28;20497;-73
2020/12/25 06:59:15;;;;;;;8.23;2.30;;;3.80;99.90;;;;;;5029366;28;20428;-74
2020/12/25 07:01:46;;;;;;;6.97;3.73;;;3.80;99.90;;;;;;5014123;28;21051;-73
2020/12/25 07:04:26;;;;;;;6.13;3.00;;;3.90;99.90;;;;;;5015110;28;20442;-74
2020/12/25 07:07:06;;;;;;;6.23;2.50;;;3.90;99.90;;;;;;5021280;28;20943;-74
2020/12/25 07:09:37;;;;;;;16.17;3.17;;;3.80;99.90;;;;;;5018800;28;20523;-74
2020/12/25 07:12:22;;;;;;;15.50;3.13;;;3.80;99.90;;;;;;5022458;28;20519;-73
2020/12/25 07:14:48;;;;;;;11.50;3.13;;;3.80;99.90;;;;;;5054715;28;20446;-74
2020/12/25 07:17:14;;;;;;;12.73;3.53;;;3.90;99.90;;;;;;5015541;28;20423;-74
2020/12/25 07:19:42;;;;;;;8.50;2.60;;;3.80;99.90;;;;;;5029039;28;20504;-73
2020/12/25 07:22:09;;;;;;;5.30;2.70;;;3.80;99.90;;;;;;5012742;28;20283;-74
2020/12/25 07:24:38;;;;;;;7.57;2.57;;;3.80;99.90;;;;;;5014887;28;20419;-73
2020/12/25 07:27:05;;;;;;;6.00;4.10;;;3.80;99.90;;;;;;5014870;28;20508;-74
2020/12/25 07:29:32;;;;;;;13.23;4.57;;;3.90;99.90;;;;;;5015041;28;20510;-74
2020/12/25 07:31:58;;;;;;;8.53;3.10;;;3.90;99.90;;;;;;5014477;28;20914;-74
2020/12/25 07:34:25;;;;;;;13.13;3.47;;;3.90;99.90;;;;;;5015682;28;20450;-74
2020/12/25 07:36:52;;;;;;;11.37;3.67;;;4.00;99.90;;;;;;5014047;28;20199;-74
2020/12/25 07:39:19;;;;;;;8.77;3.20;;;4.00;99.90;;;;;;5018723;28;20481;-73
2020/12/25 07:41:45;;;;;;;8.27;4.07;;;4.00;99.90;;;;;;5026502;28;20944;-74
2020/12/25 07:44:11;;;;;;;15.47;4.27;;;4.10;99.90;;;;;;5015719;28;20443;-74
2020/12/25 07:46:38;;;;;;;11.87;4.60;;;4.10;99.90;;;;;;5013503;28;20498;-74
2020/12/25 07:49:05;;;;;;;14.00;4.33;;;4.10;99.90;;;;;;5014518;28;20423;-73
2020/12/25 07:51:31;;;;;;;10.73;3.50;;;4.20;99.90;;;;;;5021890;28;20562;-74
2020/12/25 07:53:58;;;;;;;7.67;4.33;;;4.20;99.90;;;;;;5025790;28;20487;-74
2020/12/25 07:56:26;;;;;;;12.37;4.53;;;4.20;99.90;;;;;;5025307;28;20419;-74
2020/12/25 07:58:53;;;;;;;6.20;3.03;;;4.20;99.90;;;;;;5025877;28;20498;-73
2020/12/25 08:01:20;;;;;;;7.97;3.83;;;4.30;99.90;;;;;;5023832;28;20826;-74
2020/12/25 08:03:46;;;;;;;21.53;3.97;;;4.40;99.90;;;;;;5027160;28;20447;-74
2020/12/25 08:06:14;;;;;;;9.90;3.33;;;4.40;99.90;;;;;;5024217;28;20466;-74
2020/12/25 08:08:44;;;;;;;9.17;3.67;;;4.40;99.90;;;;;;5022523;28;20450;-74
2020/12/25 08:11:11;;;;;;;8.23;3.27;;;4.50;99.90;;;;;;5021442;28;20471;-74
2020/12/25 08:13:38;;;;;;;7.00;2.90;;;4.50;99.90;;;;;;5023427;28;20434;-73
2020/12/25 08:16:04;;;;;;;7.00;3.83;;;4.50;99.90;;;;;;5013258;28;20944;-73
2020/12/25 08:18:30;;;;;;;7.83;2.63;;;4.50;99.90;;;;;;5012470;28;20423;-73
2020/12/25 08:20:57;;;;;;;3.93;2.67;;;4.50;99.90;;;;;;5013963;28;20443;-74
2020/12/25 08:23:23;;;;;;;5.63;3.63;;;4.60;99.90;;;;;;5017418;28;20176;-73
2020/12/25 08:25:55;;;;;;;7.83;3.07;;;4.60;99.90;;;;;;5017041;28;21031;-73
2020/12/25 08:28:22;;;;;;;9.13;2.70;;;4.50;99.90;;;;;;5023465;28;20230;-74
2020/12/25 08:30:47;;;;;;;9.13;3.27;;;4.50;99.90;;;;;;5020001;28;20967;-74
2020/12/25 08:33:22;;;;;;;10.07;2.67;;;4.50;99.90;;;;;;5015233;28;20427;-73
2020/12/25 08:35:48;;;;;;;4.90;3.27;;;4.50;99.90;;;;;;5011400;28;20688;-73
2020/12/25 08:38:16;;;;;;;6.87;2.77;;;4.50;99.90;;;;;;5013320;28;20510;-75
2020/12/25 08:40:43;;;;;;;7.00;2.90;;;4.60;99.90;;;;;;5013004;28;20180;-74
2020/12/25 08:43:14;;;;;;;5.70;4.37;;;4.50;99.90;;;;;;5046547;28;20431;-74
2020/12/25 08:45:54;;;;;;;14.00;3.00;;;4.60;99.90;;;;;;5045233;28;20497;-74
2020/12/25 08:48:21;;;;;;;9.63;2.73;;;4.60;99.90;;;;;;5012639;28;20962;-73
2020/12/25 08:50:47;;;;;;;9.53;2.70;;;4.70;99.90;;;;;;5011882;28;20546;-73
2020/12/25 08:53:22;;;;;;;14.67;3.20;;;4.60;99.90;;;;;;5011099;28;20514;-73
2020/12/25 08:55:54;;;;;;;10.33;2.60;;;4.60;99.90;;;;;;5013851;28;20445;-74
2020/12/25 08:58:22;;;;;;;3.70;2.17;;;4.70;99.90;;;;;;5024123;28;20434;-73
2020/12/25 09:01:03;;;;;;;7.57;2.97;;;4.80;99.90;;;;;;5013575;28;20917;-74
2020/12/25 09:03:42;;;;;;;6.67;2.37;;;5.40;99.90;;;;;;5018716;28;20423;-74
2020/12/25 09:06:08;;;;;;;8.80;4.40;;;6.50;99.90;;;;;;5026461;28;20427;-74
2020/12/25 09:08:35;;;;;;;9.23;4.80;;;7.50;99.90;;;;;;5026430;28;20453;-74
2020/12/25 09:11:01;;;;;;;2.90;2.20;;;8.40;99.90;;;;;;5019107;28;20501;-73
2020/12/25 09:13:27;;;;;;;3.40;2.30;;;9.10;99.90;;;;;;5012248;28;20509;-74
2020/12/25 09:15:52;;;;;;;11.43;2.80;;;9.50;99.90;;;;;;5014340;28;20172;-74
2020/12/25 09:18:18;;;;;;;2.33;2.00;;;9.70;99.90;;;;;;5040032;28;20180;-74
2020/12/25 09:20:44;;;;;;;6.03;2.10;;;10.10;99.90;;;;;;5029343;28;20176;-74
2020/12/25 09:23:09;;;;;;;4.60;2.23;;;10.40;99.90;;;;;;5011911;28;20603;-74
2020/12/25 09:25:35;;;;;;;6.00;2.60;;;10.70;99.90;;;;;;5011969;28;20179;-74
2020/12/25 09:28:00;;;;;;;11.03;3.63;;;10.70;99.90;;;;;;5020838;28;20169;-74
2020/12/25 09:30:26;;;;;;;5.30;2.13;;;10.30;99.90;;;;;;5026367;28;20256;-74
2020/12/25 09:32:52;;;;;;;6.37;2.80;;;9.70;99.90;;;;;;5029131;28;20279;-74
2020/12/25 09:35:17;;;;;;;4.27;2.50;;;9.30;99.90;;;;;;5011796;28;20260;-74
2020/12/25 09:37:43;;;;;;;7.53;2.40;;;8.80;99.90;;;;;;5011878;28;20588;-74
2020/12/25 09:40:08;;;;;;;4.30;2.87;;;8.70;99.90;;;;;;5012055;28;20622;-74
2020/12/25 09:42:34;;;;;;;6.67;3.50;;;8.80;99.90;;;;;;5041948;28;20199;-74
2020/12/25 09:44:59;;;;;;;5.33;2.03;;;9.40;99.90;;;;;;5039339;28;20184;-74
2020/12/25 09:47:25;;;;;;;5.77;3.00;;;10.20;99.90;;;;;;5036308;28;20195;-74
2020/12/25 09:49:51;;;;;;;3.73;2.37;;;10.80;99.90;;;;;;5024615;28;20196;-74
2020/12/25 09:52:16;;;;;;;7.10;2.50;;;11.40;99.90;;;;;;5021435;28;20203;-74
2020/12/25 09:54:42;;;;;;;2.47;2.27;;;11.40;99.90;;;;;;5012019;28;20160;-74
2020/12/25 09:57:07;;;;;;;6.83;2.40;;;11.40;99.90;;;;;;5011959;28;20180;-74
2020/12/25 09:59:33;;;;;;;4.10;2.40;;;11.00;99.90;;;;;;5011709;28;20168;-73
2020/12/25 10:01:59;;;;;;;8.20;2.33;;;11.00;99.90;;;;;;5011147;28;20717;-74
2020/12/25 10:04:24;;;;;;;1.73;1.60;;;11.60;99.90;;;;;;5012815;28;20172;-74
2020/12/25 10:06:50;;;;;;;6.23;2.10;;;11.70;99.90;;;;;;5017053;28;20180;-74
2020/12/25 10:09:15;;;;;;;5.43;1.87;;;12.20;99.90;;;;;;5018630;28;20212;-75
2020/12/25 10:11:41;;;;;;;6.40;4.17;;;12.90;99.90;;;;;;5016693;28;20215;-74
2020/12/25 10:14:06;;;;;;;5.43;3.20;;;13.60;99.90;;;;;;5016163;28;20531;-74
2020/12/25 10:16:34;;;;;;;8.37;2.07;;;14.30;99.90;;;;;;5016213;28;20169;-74
2020/12/25 10:18:59;;;;;;;4.33;1.60;;;14.40;99.90;;;;;;5032332;28;20212;-74
2020/12/25 10:21:25;;;;;;;5.67;2.30;;;14.30;99.90;;;;;;5007022;28;20444;-74
2020/12/25 10:23:51;;;;;;;6.60;2.50;;;13.90;99.90;;;;;;5011841;28;20641;-73
2020/12/25 10:26:16;;;;;;;4.83;1.73;;;13.00;99.90;;;;;;5018273;28;20180;-74
2020/12/25 10:28:42;;;;;;;4.70;1.93;;;12.40;99.90;;;;;;5018773;28;20314;-76
2020/12/25 10:31:10;;;;;;;3.83;2.40;;;11.90;99.90;;;;;;5018306;28;20204;-74
2020/12/25 10:33:38;;;;;;;4.80;1.47;;;11.10;99.90;;;;;;5033550;28;20168;-74
2020/12/25 10:36:04;;;;;;;4.23;2.80;;;10.50;99.90;;;;;;5017942;28;20502;-73
2020/12/25 10:38:29;;;;;;;7.60;3.70;;;10.10;99.90;;;;;;5017442;28;20433;-74
2020/12/25 10:40:55;;;;;;;5.10;1.80;;;9.80;99.90;;;;;;5018267;28;20426;-73
2020/12/25 10:43:21;;;;;;;3.87;1.87;;;9.40;99.90;;;;;;5018404;28;20194;-74
2020/12/25 10:45:46;;;;;;;8.30;2.53;;;9.30;99.90;;;;;;5018146;28;20173;-74
2020/12/25 10:48:12;;;;;;;7.43;3.60;;;9.20;99.90;;;;;;5018611;28;20192;-74
2020/12/25 10:50:38;;;;;;;7.13;2.47;;;9.00;99.90;;;;;;5018488;28;20236;-74
2020/12/25 10:53:03;;;;;;;6.33;1.67;;;8.90;99.90;;;;;;5018434;28;20221;-73
2020/12/25 10:55:29;;;;;;;4.03;2.47;;;8.60;99.90;;;;;;5034276;28;20192;-74
2020/12/25 10:57:54;;;;;;;3.83;2.47;;;8.30;99.90;;;;;;5019768;28;20167;-74
2020/12/25 11:00:20;;;;;;;6.03;2.13;;;8.00;99.90;;;;;;5034615;28;20180;-74
2020/12/25 11:02:46;;;;;;;3.20;1.83;;;7.70;99.90;;;;;;5047904;28;20563;-74
2020/12/25 11:05:14;;;;;;;6.93;1.97;;;8.10;99.90;;;;;;5017289;28;20227;-74
2020/12/25 11:07:40;;;;;;;3.97;1.80;;;8.10;99.90;;;;;;5047600;28;20173;-74
2020/12/25 11:10:06;;;;;;;4.67;1.70;;;8.40;99.90;;;;;;5017771;28;20593;-74
2020/12/25 11:12:31;;;;;;;5.60;2.30;;;8.50;99.90;;;;;;5032592;28;20238;-74
2020/12/25 11:14:57;;;;;;;5.07;2.87;;;8.40;99.90;;;;;;5017760;28;20263;-74
2020/12/25 11:17:22;;;;;;;5.67;1.83;;;8.40;99.90;;;;;;5017857;28;20172;-74
2020/12/25 11:19:48;;;;;;;8.43;2.13;;;8.20;99.90;;;;;;5018852;28;20175;-73
2020/12/25 11:22:14;;;;;;;5.07;1.77;;;8.20;99.90;;;;;;5018625;28;20191;-74
2020/12/25 11:24:44;;;;;;;3.47;1.70;;;8.40;99.90;;;;;;5018070;28;20506;-74
2020/12/25 11:27:10;;;;;;;6.53;2.00;;;8.70;99.90;;;;;;5018738;28;20415;-73
2020/12/25 11:29:36;;;;;;;10.53;2.50;;;8.70;99.90;;;;;;5018990;28;20474;-74
2020/12/25 11:32:02;;;;;;;5.03;1.80;;;8.60;99.90;;;;;;5016786;28;20459;-74
2020/12/25 11:34:27;;;;;;;5.97;2.67;;;8.50;99.90;;;;;;5035086;28;20433;-74
2020/12/25 11:36:53;;;;;;;9.30;1.90;;;8.60;99.90;;;;;;5019756;28;20495;-74
2020/12/25 11:39:19;;;;;;;10.93;2.93;;;8.60;99.90;;;;;;5020237;28;20226;-74
2020/12/25 11:41:44;;;;;;;8.40;2.30;;;8.50;99.90;;;;;;5033684;28;20222;-74
2020/12/25 11:44:10;;;;;;;6.07;2.07;;;8.40;99.90;;;;;;5021637;28;20182;-74
2020/12/25 11:46:36;;;;;;;4.20;2.20;;;8.30;99.90;;;;;;5020481;28;20168;-74
2020/12/25 11:49:05;;;;;;;7.20;2.20;;;8.30;99.90;;;;;;5016586;28;20192;-74
2020/12/25 11:51:31;;;;;;;7.03;1.90;;;8.30;99.90;;;;;;5009277;28;20710;-74
2020/12/25 11:53:57;;;;;;;5.20;2.00;;;8.30;99.90;;;;;;5020761;28;20416;-74
2020/12/25 11:56:29;;;;;;;5.63;1.60;;;8.30;99.90;;;;;;5019008;28;20176;-74
2020/12/25 11:58:56;;;;;;;7.23;1.90;;;8.30;99.90;;;;;;5020704;28;20330;-73
2020/12/25 12:01:22;;;;;;;7.53;2.40;;;8.60;99.90;;;;;;5017604;28;20458;-74
2020/12/25 12:03:47;;;;;;;5.60;1.80;;;8.70;99.90;;;;;;5017189;28;21037;-74
2020/12/25 12:06:23;;;;;;;8.00;2.13;;;8.80;99.90;;;;;;5013546;28;20511;-74
2020/12/25 12:08:49;;;;;;;11.90;2.93;;;8.90;99.90;;;;;;5016728;28;20186;-73
2020/12/25 12:11:15;;;;;;;6.97;2.40;;;9.10;99.90;;;;;;5033393;28;20470;-73
2020/12/25 12:13:40;;;;;;;7.37;2.10;;;9.10;99.90;;;;;;5045314;28;20431;-74
2020/12/25 12:16:12;;;;;;;9.10;3.80;;;9.10;99.90;;;;;;5017649;28;20179;-74
2020/12/25 12:18:38;;;;;;;4.60;2.00;;;9.00;99.90;;;;;;5016193;28;20538;-74
2020/12/25 12:21:04;;;;;;;6.93;1.63;;;8.60;99.90;;;;;;5018285;28;20446;-73
2020/12/25 12:23:29;;;;;;;8.50;2.10;;;8.40;99.90;;;;;;5033537;28;20176;-73
2020/12/25 12:25:55;;;;;;;5.40;2.53;;;8.10;99.90;;;;;;5018229;28;20531;-74
2020/12/25 12:28:20;;;;;;;15.13;3.00;;;8.10;99.90;;;;;;5018037;28;20172;-74
2020/12/25 12:30:47;;;;;;;7.07;2.00;;;7.90;99.90;;;;;;5018713;28;20204;-74
2020/12/25 12:33:13;;;;;;;3.60;2.07;;;7.90;99.90;;;;;;5034001;28;20637;-73
2020/12/25 12:35:39;;;;;;;3.87;2.63;;;7.80;99.90;;;;;;5033114;28;20487;-74
2020/12/25 12:38:05;;;;;;;5.33;2.47;;;7.60;99.90;;;;;;5017919;28;20438;-74
2020/12/25 12:40:30;;;;;;;8.23;2.13;;;7.60;99.90;;;;;;5033379;28;20180;-74
2020/12/25 12:42:56;;;;;;;5.33;2.33;;;7.60;99.90;;;;;;5016924;28;20192;-74
2020/12/25 12:45:21;;;;;;;6.37;2.17;;;7.90;99.90;;;;;;5016359;28;20175;-74
2020/12/25 12:47:47;;;;;;;5.37;2.83;;;7.80;99.90;;;;;;5016064;28;20781;-74
2020/12/25 12:50:13;;;;;;;6.87;3.03;;;7.90;99.90;;;;;;5015227;28;20204;-74
2020/12/25 12:52:39;;;;;;;9.83;2.10;;;7.90;99.90;;;;;;5016641;28;20286;-74